Prescott, AZ (86301)

5:45 PM MST on February 12, 2016 (GMT -0700)
Prescott Heights | | Change Station
CLOSE
Current Station
Personal Weather Station
Location: Prescott, AZ
Elevation: 5305 ft
Nearby Weather Stations

Elev 5305 ft 34.55 °N, 112.47 °W | Updated 19 seconds ago

Clear
Clear
63.8 °F
Feels Like 63.8 °F
N
3.0
Wind Variable Wind from WNW
Gusts 5.0 mph

Today
High -- | Low -- °F
--% Chance of Precip.
Yesterday
High -- | Low -- °F
Precip. -- in
Pressure 30.09 in
Visibility 10.0 miles
Clouds Clear
Dew Point 22 °F
Humidity 20%
Rainfall 0.00 in
Snow Depth Not available.
7:18 AM 6:09 PM
Waxing Crescent, 25% visible
METAR KPRC 122353Z 14009KT 10SM CLR 23/M12 A3023 RMK AO2 SLP189 T02331122 10239 20161 56009
Pressure 30.09 in
Visibility 10.0 miles
Clouds Clear
Dew Point 22 °F
Humidity 20%
Rainfall 0.00 in
Snow Depth Not available.
7:18 AM 6:09 PM
Waxing Crescent, 25% visible
METAR KPRC 122353Z 14009KT 10SM CLR 23/M12 A3023 RMK AO2 SLP189 T02331122 10239 20161 56009

10-Day Weather Forecast

Almanac

Astronomy

Feb. 12, 2016 Rise Set
Actual Time
Civil Twilight
Nautical Twilight
Astronomical Twilight
Moon
Length of Visible Light
Length of Day
Tomorrow will be .
, % of the Moon is Illuminated

Today's Extremes

State Highs State Lows

Community

WunderPhotos

Upload Photos

1,892,444 photos uploaded!

WunderBlog® & News

Nearby

Air Quality

  Air Quality AQ Index Pollutant
Not available.

Snow Depth

Station Depth Elevation

Earthquake Activity

City Distance Mag. Time & Date
Minimum magnitude displayed is 2.5.

Coastal Water Temperatures

Place Temperature

Stations

Nearby Weather Stations

Station Location Temp. Windchill Dew Point Humidity Wind Precip. Elev Updated Type
                   

Watches & Warnings

There are currently no watches in effect.